SLVRSGAS

Guest
Details From SLVR - VIRU VIRU INTL
To SGAS - SILVIO PETTIROSSI INTL
Flight Number -
Tags decoded
Created
Modified
Stats Distance 554 nm / 1,026 km
Max Altitude 0 ft / 0 m
Waypoints 3
Social Downloads 1
Likes 0
Share VATSIM

Download

Looking for another format? Having issues loading an existing format? Contact us
Advertisement - Login to hide

Notes

Requested: SLVR PORGO1 PORGO UA321 VAS SGAS Unmatched points: PORGO1 PORGO UA321

Route

SLVR VAS SGAS

ID Type Via Altitude Latitude Longitude Leg Dist Tot Dist Heading (true) Name
O SLVR APT - 0 ft / 0 m -17.64476˚ -63.13536˚ - 0 nm - VIRU VIRU INTL
VAS VOR - 0 ft / 0 m -25.24417˚ -57.52194˚ 553 nm 553 nm 146° / 144° ASUNCION VOR-DME
O SGAS APT - 0 ft / 0 m -25.23985˚ -57.51914˚ 0 nm 553 nm 30° / 30° SILVIO PETTIROSSI INTL

Altitude Profile

Advertisement - Login to hide

Weather


0- 5 10 15 20 25 30 35+ Temperature / ° C

Clouds and Precipitation
Forecast for 2018-05-23 18:00 UTC. Updated 4 hours ago

Ground ~20,000 ft ~40,000 ft Winds

SLVR

Details ICAO SLVR (VVI)
Name VIRU VIRU INTL
Region Bolivia
Timezone America/La_Paz (UTC-4.0)
Stats Elevation 1,225 ft / 373 m (AMSL)
Location -17.644755° -63.135362°
Runways 1
Magnetic Variation 11.976° W

METAR

SLVR 232100Z 12004KT 9999 FEW020 23/13 Q1018

Decode

TAF

Not found

Departure Runways

ID Width Length Bearing (true) Bearing (mag) Surface Threshold Offset Overrun Length
16 148 ft / 45 m 11,519 ft / 3,511 m 147.35° 159.33° Concrete 0 ft / 0 m 197 ft / 60 m
34 148 ft / 45 m 11,519 ft / 3,511 m 327.34° 339.32° Concrete 0 ft / 0 m 197 ft / 60 m

SGAS

Details ICAO SGAS (ASU)
Name SILVIO PETTIROSSI INTL
Region Paraguay
Timezone America/Asuncion (UTC-4.0)
Stats Elevation 292 ft / 89 m (AMSL)
Location -25.239850° -57.519135°
Runways 1
Magnetic Variation 14.236° W

METAR

SGAS 232100Z 16005KT CAVOK 19/08 Q1021

Decode

TAF

Not found

Destination Runways

ID Width Length Bearing (true) Bearing (mag) Surface Threshold Offset Overrun Length
02 151 ft / 46 m 11,043 ft / 3,366 m 12.40° 26.64° Asphalt 0 ft / 0 m 161 ft / 49 m
20 151 ft / 46 m 11,043 ft / 3,366 m 192.40° 206.64° Asphalt 0 ft / 0 m 165 ft / 50 m

Approach Navaids

Runway Type Ident Frequency Range Bearing (true) Bearing (mag) Slope Elevation
20 Localiser IPST 109.50 MHz 18 nm / 33 km 192.47° 206.71° - 288 ft / 88 m (AMSL)
20 Glidescope IPST 109.50 MHz 10 nm / 19 km 192.40° 206.64° 3.00° 298 ft / 91 m (AMSL)

Popular Alternatives